sensor_id;sensor_type;location;lat;lon;timestamp;temperature;humidity
44863;DHT22;30597;49.628;10.850;2023-04-29T00:00:51;21.30;52.00
44863;DHT22;30597;49.628;10.850;2023-04-29T00:03:16;21.30;52.00
44863;DHT22;30597;49.628;10.850;2023-04-29T00:05:43;21.30;52.10
44863;DHT22;30597;49.628;10.850;2023-04-29T00:08:09;21.30;52.20
44863;DHT22;30597;49.628;10.850;2023-04-29T00:10:34;21.30;52.30
44863;DHT22;30597;49.628;10.850;2023-04-29T00:13:00;21.30;52.30
44863;DHT22;30597;49.628;10.850;2023-04-29T00:15:26;21.30;52.40
44863;DHT22;30597;49.628;10.850;2023-04-29T00:17:52;21.30;52.40
44863;DHT22;30597;49.628;10.850;2023-04-29T00:20:18;21.30;52.40
44863;DHT22;30597;49.628;10.850;2023-04-29T00:22:43;21.30;52.40
44863;DHT22;30597;49.628;10.850;2023-04-29T00:25:09;21.30;52.40
44863;DHT22;30597;49.628;10.850;2023-04-29T00:27:35;21.40;52.50
44863;DHT22;30597;49.628;10.850;2023-04-29T00:30:00;21.30;53.00
44863;DHT22;30597;49.628;10.850;2023-04-29T00:32:26;21.40;52.50
44863;DHT22;30597;49.628;10.850;2023-04-29T00:34:52;21.30;52.40
44863;DHT22;30597;49.628;10.850;2023-04-29T00:37:17;21.30;52.50
44863;DHT22;30597;49.628;10.850;2023-04-29T00:39:43;21.30;52.50
44863;DHT22;30597;49.628;10.850;2023-04-29T00:42:09;21.30;52.50
44863;DHT22;30597;49.628;10.850;2023-04-29T00:44:34;21.30;52.60
44863;DHT22;30597;49.628;10.850;2023-04-29T00:47:00;21.30;52.60
44863;DHT22;30597;49.628;10.850;2023-04-29T00:49:26;21.30;52.60
44863;DHT22;30597;49.628;10.850;2023-04-29T00:51:53;21.30;52.70
44863;DHT22;30597;49.628;10.850;2023-04-29T00:54:19;21.30;52.80
44863;DHT22;30597;49.628;10.850;2023-04-29T00:56:45;21.30;52.80
44863;DHT22;30597;49.628;10.850;2023-04-29T00:59:11;21.30;52.90
44863;DHT22;30597;49.628;10.850;2023-04-29T01:01:40;21.30;52.90
44863;DHT22;30597;49.628;10.850;2023-04-29T01:04:06;21.30;52.90
44863;DHT22;30597;49.628;10.850;2023-04-29T01:09:59;21.30;53.00
44863;DHT22;30597;49.628;10.850;2023-04-29T01:12:32;21.30;53.00
44863;DHT22;30597;49.628;10.850;2023-04-29T01:18:03;21.20;53.00
44863;DHT22;30597;49.628;10.850;2023-04-29T01:20:30;21.20;53.20
44863;DHT22;30597;49.628;10.850;2023-04-29T01:22:56;21.20;53.90
44863;DHT22;30597;49.628;10.850;2023-04-29T01:25:22;21.20;53.20
44863;DHT22;30597;49.628;10.850;2023-04-29T01:33:22;21.20;53.50
44863;DHT22;30597;49.628;10.850;2023-04-29T01:36:11;21.20;53.60
44863;DHT22;30597;49.628;10.850;2023-04-29T01:38:52;21.20;53.70
44863;DHT22;30597;49.628;10.850;2023-04-29T01:41:42;21.20;54.50
44863;DHT22;30597;49.628;10.850;2023-04-29T01:44:14;21.30;54.40
44863;DHT22;30597;49.628;10.850;2023-04-29T01:46:42;21.30;54.90
44863;DHT22;30597;49.628;10.850;2023-04-29T01:49:08;21.30;54.30
44863;DHT22;30597;49.628;10.850;2023-04-29T01:51:34;21.30;54.20
44863;DHT22;30597;49.628;10.850;2023-04-29T01:53:59;21.30;54.20
44863;DHT22;30597;49.628;10.850;2023-04-29T01:56:25;21.30;54.20
44863;DHT22;30597;49.628;10.850;2023-04-29T01:58:50;21.30;54.20
44863;DHT22;30597;49.628;10.850;2023-04-29T02:01:16;21.30;54.20
44863;DHT22;30597;49.628;10.850;2023-04-29T02:03:41;21.30;54.20
44863;DHT22;30597;49.628;10.850;2023-04-29T02:06:07;21.30;54.20
44863;DHT22;30597;49.628;10.850;2023-04-29T02:08:32;21.30;54.20
44863;DHT22;30597;49.628;10.850;2023-04-29T02:10:58;21.30;54.20
44863;DHT22;30597;49.628;10.850;2023-04-29T02:13:25;21.30;54.20
44863;DHT22;30597;49.628;10.850;2023-04-29T02:15:51;21.30;54.30
44863;DHT22;30597;49.628;10.850;2023-04-29T02:18:16;21.30;54.30
44863;DHT22;30597;49.628;10.850;2023-04-29T02:20:42;21.30;54.20
44863;DHT22;30597;49.628;10.850;2023-04-29T02:23:07;21.30;54.20
44863;DHT22;30597;49.628;10.850;2023-04-29T02:25:33;21.30;54.20
44863;DHT22;30597;49.628;10.850;2023-04-29T02:27:59;21.30;54.30
44863;DHT22;30597;49.628;10.850;2023-04-29T02:30:24;21.20;54.30
44863;DHT22;30597;49.628;10.850;2023-04-29T02:32:50;21.20;54.30
44863;DHT22;30597;49.628;10.850;2023-04-29T02:35:15;21.30;54.40
44863;DHT22;30597;49.628;10.850;2023-04-29T02:37:41;21.30;54.40
44863;DHT22;30597;49.628;10.850;2023-04-29T02:40:07;21.30;54.20
44863;DHT22;30597;49.628;10.850;2023-04-29T02:42:32;21.30;54.20
44863;DHT22;30597;49.628;10.850;2023-04-29T02:44:58;21.40;54.10
44863;DHT22;30597;49.628;10.850;2023-04-29T02:47:24;21.40;54.00
44863;DHT22;30597;49.628;10.850;2023-04-29T02:49:49;21.40;53.90
44863;DHT22;30597;49.628;10.850;2023-04-29T02:52:15;21.40;53.80
44863;DHT22;30597;49.628;10.850;2023-04-29T02:54:41;21.40;53.90
44863;DHT22;30597;49.628;10.850;2023-04-29T02:57:07;21.40;53.90
44863;DHT22;30597;49.628;10.850;2023-04-29T02:59:33;21.30;53.80
44863;DHT22;30597;49.628;10.850;2023-04-29T03:01:59;21.30;53.90
44863;DHT22;30597;49.628;10.850;2023-04-29T03:04:26;21.20;53.90
44863;DHT22;30597;49.628;10.850;2023-04-29T03:06:54;21.20;53.90
44863;DHT22;30597;49.628;10.850;2023-04-29T03:09:20;21.20;54.00
44863;DHT22;30597;49.628;10.850;2023-04-29T03:11:46;21.20;54.00
44863;DHT22;30597;49.628;10.850;2023-04-29T03:14:11;21.20;54.00
44863;DHT22;30597;49.628;10.850;2023-04-29T03:16:37;21.10;54.00
44863;DHT22;30597;49.628;10.850;2023-04-29T03:19:02;21.10;54.00
44863;DHT22;30597;49.628;10.850;2023-04-29T03:21:28;21.10;54.10
44863;DHT22;30597;49.628;10.850;2023-04-29T03:23:54;21.10;54.20
44863;DHT22;30597;49.628;10.850;2023-04-29T03:26:20;21.10;54.20
44863;DHT22;30597;49.628;10.850;2023-04-29T03:28:48;21.10;54.20
44863;DHT22;30597;49.628;10.850;2023-04-29T03:31:14;21.10;54.20
44863;DHT22;30597;49.628;10.850;2023-04-29T03:33:40;21.10;54.20
44863;DHT22;30597;49.628;10.850;2023-04-29T03:36:06;21.10;54.20
44863;DHT22;30597;49.628;10.850;2023-04-29T03:38:33;21.10;54.20
44863;DHT22;30597;49.628;10.850;2023-04-29T03:40:58;21.10;54.30
44863;DHT22;30597;49.628;10.850;2023-04-29T03:43:24;21.10;54.30
44863;DHT22;30597;49.628;10.850;2023-04-29T03:45:49;21.10;54.20
44863;DHT22;30597;49.628;10.850;2023-04-29T03:48:15;21.10;54.30
44863;DHT22;30597;49.628;10.850;2023-04-29T03:50:41;21.10;54.30
44863;DHT22;30597;49.628;10.850;2023-04-29T03:53:06;21.10;54.30
44863;DHT22;30597;49.628;10.850;2023-04-29T03:55:32;21.10;54.30
44863;DHT22;30597;49.628;10.850;2023-04-29T03:57:58;21.10;54.40
44863;DHT22;30597;49.628;10.850;2023-04-29T04:00:24;21.10;54.30
44863;DHT22;30597;49.628;10.850;2023-04-29T04:02:51;21.00;54.20
44863;DHT22;30597;49.628;10.850;2023-04-29T04:05:16;21.00;54.20
44863;DHT22;30597;49.628;10.850;2023-04-29T04:07:45;21.10;54.30
44863;DHT22;30597;49.628;10.850;2023-04-29T04:10:11;21.00;54.20
44863;DHT22;30597;49.628;10.850;2023-04-29T04:12:36;21.00;54.20
44863;DHT22;30597;49.628;10.850;2023-04-29T04:15:02;21.00;54.20
44863;DHT22;30597;49.628;10.850;2023-04-29T04:17:28;21.00;54.20
44863;DHT22;30597;49.628;10.850;2023-04-29T04:19:54;21.00;54.20
44863;DHT22;30597;49.628;10.850;2023-04-29T04:22:20;21.00;54.20
44863;DHT22;30597;49.628;10.850;2023-04-29T04:24:45;21.00;54.20
44863;DHT22;30597;49.628;10.850;2023-04-29T04:27:11;21.00;54.30
44863;DHT22;30597;49.628;10.850;2023-04-29T04:29:37;21.00;54.20
44863;DHT22;30597;49.628;10.850;2023-04-29T04:32:03;21.00;54.20
44863;DHT22;30597;49.628;10.850;2023-04-29T04:34:29;21.00;54.20
44863;DHT22;30597;49.628;10.850;2023-04-29T04:36:54;21.00;54.20
44863;DHT22;30597;49.628;10.850;2023-04-29T04:39:20;21.00;54.20
44863;DHT22;30597;49.628;10.850;2023-04-29T04:41:45;21.00;54.20
44863;DHT22;30597;49.628;10.850;2023-04-29T04:44:11;21.00;54.20
44863;DHT22;30597;49.628;10.850;2023-04-29T04:46:37;21.00;54.30
44863;DHT22;30597;49.628;10.850;2023-04-29T04:49:03;21.00;54.30
44863;DHT22;30597;49.628;10.850;2023-04-29T04:51:28;21.00;54.30
44863;DHT22;30597;49.628;10.850;2023-04-29T04:53:54;21.00;54.20
44863;DHT22;30597;49.628;10.850;2023-04-29T04:56:19;21.00;54.30
44863;DHT22;30597;49.628;10.850;2023-04-29T04:58:45;21.00;54.30
44863;DHT22;30597;49.628;10.850;2023-04-29T05:01:10;21.00;54.30
44863;DHT22;30597;49.628;10.850;2023-04-29T05:03:36;21.00;54.40
44863;DHT22;30597;49.628;10.850;2023-04-29T05:06:01;21.00;54.40
44863;DHT22;30597;49.628;10.850;2023-04-29T05:08:27;21.00;54.40
44863;DHT22;30597;49.628;10.850;2023-04-29T05:10:53;21.00;54.50
44863;DHT22;30597;49.628;10.850;2023-04-29T05:13:19;21.10;54.40
44863;DHT22;30597;49.628;10.850;2023-04-29T05:15:44;21.00;54.40
44863;DHT22;30597;49.628;10.850;2023-04-29T05:18:10;21.10;54.50
44863;DHT22;30597;49.628;10.850;2023-04-29T05:20:36;21.00;54.20
44863;DHT22;30597;49.628;10.850;2023-04-29T05:23:02;21.10;54.40
44863;DHT22;30597;49.628;10.850;2023-04-29T05:25:28;21.00;54.40
44863;DHT22;30597;49.628;10.850;2023-04-29T05:27:54;21.10;54.40
44863;DHT22;30597;49.628;10.850;2023-04-29T05:30:19;21.10;54.40
44863;DHT22;30597;49.628;10.850;2023-04-29T05:32:45;21.00;54.40
44863;DHT22;30597;49.628;10.850;2023-04-29T05:35:11;21.00;54.40
44863;DHT22;30597;49.628;10.850;2023-04-29T05:37:37;21.00;54.40
44863;DHT22;30597;49.628;10.850;2023-04-29T05:40:03;21.10;54.50
44863;DHT22;30597;49.628;10.850;2023-04-29T05:42:28;21.10;54.50
44863;DHT22;30597;49.628;10.850;2023-04-29T05:44:54;21.00;54.50
44863;DHT22;30597;49.628;10.850;2023-04-29T05:47:20;21.10;54.40
44863;DHT22;30597;49.628;10.850;2023-04-29T05:49:46;21.00;55.00
44863;DHT22;30597;49.628;10.850;2023-04-29T05:52:12;21.10;54.50
44863;DHT22;30597;49.628;10.850;2023-04-29T05:54:38;21.10;54.40
44863;DHT22;30597;49.628;10.850;2023-04-29T05:57:03;21.10;54.40
44863;DHT22;30597;49.628;10.850;2023-04-29T05:59:30;21.10;54.40
44863;DHT22;30597;49.628;10.850;2023-04-29T06:01:56;21.10;54.50
44863;DHT22;30597;49.628;10.850;2023-04-29T06:04:22;21.00;54.30
44863;DHT22;30597;49.628;10.850;2023-04-29T06:06:52;21.10;54.40
44863;DHT22;30597;49.628;10.850;2023-04-29T06:09:19;21.10;54.30
44863;DHT22;30597;49.628;10.850;2023-04-29T06:11:45;21.20;54.20
44863;DHT22;30597;49.628;10.850;2023-04-29T06:14:11;21.30;54.50
44863;DHT22;30597;49.628;10.850;2023-04-29T06:16:36;21.40;54.40
44863;DHT22;30597;49.628;10.850;2023-04-29T06:19:02;21.60;54.40
44863;DHT22;30597;49.628;10.850;2023-04-29T06:21:28;21.70;54.40
44863;DHT22;30597;49.628;10.850;2023-04-29T06:23:53;21.80;54.20
44863;DHT22;30597;49.628;10.850;2023-04-29T06:26:19;21.90;54.20
44863;DHT22;30597;49.628;10.850;2023-04-29T06:28:46;22.00;54.10
44863;DHT22;30597;49.628;10.850;2023-04-29T06:31:12;22.00;54.00
44863;DHT22;30597;49.628;10.850;2023-04-29T06:33:37;22.20;53.90
44863;DHT22;30597;49.628;10.850;2023-04-29T06:36:04;22.20;53.80
44863;DHT22;30597;49.628;10.850;2023-04-29T06:38:30;22.20;53.60
44863;DHT22;30597;49.628;10.850;2023-04-29T06:40:56;22.30;53.60
44863;DHT22;30597;49.628;10.850;2023-04-29T06:43:32;22.40;53.60
44863;DHT22;30597;49.628;10.850;2023-04-29T06:45:58;22.40;53.60
44863;DHT22;30597;49.628;10.850;2023-04-29T06:48:24;22.50;53.40
44863;DHT22;30597;49.628;10.850;2023-04-29T06:50:56;22.50;53.40
44863;DHT22;30597;49.628;10.850;2023-04-29T06:53:22;22.50;53.20
44863;DHT22;30597;49.628;10.850;2023-04-29T06:55:48;22.60;53.10
44863;DHT22;30597;49.628;10.850;2023-04-29T06:58:14;22.60;53.00
44863;DHT22;30597;49.628;10.850;2023-04-29T07:00:44;22.70;52.90
44863;DHT22;30597;49.628;10.850;2023-04-29T07:03:10;22.70;53.00
44863;DHT22;30597;49.628;10.850;2023-04-29T07:05:36;22.70;52.80
44863;DHT22;30597;49.628;10.850;2023-04-29T07:08:06;22.70;52.80
44863;DHT22;30597;49.628;10.850;2023-04-29T07:10:32;22.70;52.80
44863;DHT22;30597;49.628;10.850;2023-04-29T07:12:58;22.70;52.80
44863;DHT22;30597;49.628;10.850;2023-04-29T07:15:27;22.70;52.90
44863;DHT22;30597;49.628;10.850;2023-04-29T07:17:53;22.70;53.00
44863;DHT22;30597;49.628;10.850;2023-04-29T07:20:18;22.70;53.00
44863;DHT22;30597;49.628;10.850;2023-04-29T07:22:44;22.70;53.00
44863;DHT22;30597;49.628;10.850;2023-04-29T07:25:10;22.70;52.90
44863;DHT22;30597;49.628;10.850;2023-04-29T07:27:36;22.70;52.90
44863;DHT22;30597;49.628;10.850;2023-04-29T07:30:02;22.70;52.90
44863;DHT22;30597;49.628;10.850;2023-04-29T07:32:28;22.70;52.90
44863;DHT22;30597;49.628;10.850;2023-04-29T07:34:56;22.70;52.90
44863;DHT22;30597;49.628;10.850;2023-04-29T07:37:21;22.70;52.80
44863;DHT22;30597;49.628;10.850;2023-04-29T07:39:47;22.70;52.80
44863;DHT22;30597;49.628;10.850;2023-04-29T07:42:12;22.70;52.80
44863;DHT22;30597;49.628;10.850;2023-04-29T07:44:38;22.70;52.80
44863;DHT22;30597;49.628;10.850;2023-04-29T07:47:04;22.70;52.80
44863;DHT22;30597;49.628;10.850;2023-04-29T07:49:30;22.70;52.70
44863;DHT22;30597;49.628;10.850;2023-04-29T07:51:55;22.70;52.70
44863;DHT22;30597;49.628;10.850;2023-04-29T07:54:21;22.70;52.80
44863;DHT22;30597;49.628;10.850;2023-04-29T07:56:48;22.70;52.80
44863;DHT22;30597;49.628;10.850;2023-04-29T07:59:13;22.70;52.80
44863;DHT22;30597;49.628;10.850;2023-04-29T08:01:42;22.70;52.70
44863;DHT22;30597;49.628;10.850;2023-04-29T08:04:07;22.70;52.60
44863;DHT22;30597;49.628;10.850;2023-04-29T08:06:34;22.70;52.60
44863;DHT22;30597;49.628;10.850;2023-04-29T08:09:00;22.70;52.50
44863;DHT22;30597;49.628;10.850;2023-04-29T08:11:26;22.70;52.50
44863;DHT22;30597;49.628;10.850;2023-04-29T08:13:52;22.70;52.70
44863;DHT22;30597;49.628;10.850;2023-04-29T08:16:17;22.70;52.70
44863;DHT22;30597;49.628;10.850;2023-04-29T08:18:43;22.70;52.70
44863;DHT22;30597;49.628;10.850;2023-04-29T08:21:09;22.70;52.70
44863;DHT22;30597;49.628;10.850;2023-04-29T08:23:37;22.70;52.70
44863;DHT22;30597;49.628;10.850;2023-04-29T08:26:03;22.70;52.60
44863;DHT22;30597;49.628;10.850;2023-04-29T08:28:28;22.70;52.70
44863;DHT22;30597;49.628;10.850;2023-04-29T08:30:54;22.70;52.80
44863;DHT22;30597;49.628;10.850;2023-04-29T08:33:20;22.70;52.10
44863;DHT22;30597;49.628;10.850;2023-04-29T08:35:45;22.60;51.30
44863;DHT22;30597;49.628;10.850;2023-04-29T08:38:11;22.60;51.40
44863;DHT22;30597;49.628;10.850;2023-04-29T08:40:42;22.50;51.50
44863;DHT22;30597;49.628;10.850;2023-04-29T08:43:08;22.60;51.60
44863;DHT22;30597;49.628;10.850;2023-04-29T08:45:35;22.60;51.40
44863;DHT22;30597;49.628;10.850;2023-04-29T08:48:05;22.50;51.40
44863;DHT22;30597;49.628;10.850;2023-04-29T08:50:37;22.60;51.50
44863;DHT22;30597;49.628;10.850;2023-04-29T08:53:05;22.60;51.40
44863;DHT22;30597;49.628;10.850;2023-04-29T08:55:35;22.60;51.30
44863;DHT22;30597;49.628;10.850;2023-04-29T08:58:01;22.60;51.30
44863;DHT22;30597;49.628;10.850;2023-04-29T09:00:27;22.60;51.10
44863;DHT22;30597;49.628;10.850;2023-04-29T09:02:56;22.60;51.10
44863;DHT22;30597;49.628;10.850;2023-04-29T09:05:22;22.60;51.00
44863;DHT22;30597;49.628;10.850;2023-04-29T09:07:50;22.60;51.20
44863;DHT22;30597;49.628;10.850;2023-04-29T09:10:16;22.60;51.20
44863;DHT22;30597;49.628;10.850;2023-04-29T09:12:42;22.50;50.90
44863;DHT22;30597;49.628;10.850;2023-04-29T09:15:08;22.50;50.80
44863;DHT22;30597;49.628;10.850;2023-04-29T09:17:44;22.50;50.90
44863;DHT22;30597;49.628;10.850;2023-04-29T09:22:58;22.50;50.80
44863;DHT22;30597;49.628;10.850;2023-04-29T09:25:25;22.50;51.00
44863;DHT22;30597;49.628;10.850;2023-04-29T09:27:52;22.50;50.70
44863;DHT22;30597;49.628;10.850;2023-04-29T09:30:17;22.50;50.70
44863;DHT22;30597;49.628;10.850;2023-04-29T09:32:44;22.40;50.90
44863;DHT22;30597;49.628;10.850;2023-04-29T09:35:26;22.40;50.90
44863;DHT22;30597;49.628;10.850;2023-04-29T09:37:53;22.40;50.70
44863;DHT22;30597;49.628;10.850;2023-04-29T09:40:32;22.50;50.90
44863;DHT22;30597;49.628;10.850;2023-04-29T09:42:59;22.50;50.60
44863;DHT22;30597;49.628;10.850;2023-04-29T09:45:35;22.40;50.60
44863;DHT22;30597;49.628;10.850;2023-04-29T09:48:05;22.50;50.70
44863;DHT22;30597;49.628;10.850;2023-04-29T09:50:32;22.50;50.80
44863;DHT22;30597;49.628;10.850;2023-04-29T09:52:58;22.50;50.60
44863;DHT22;30597;49.628;10.850;2023-04-29T09:55:24;22.50;50.50
44863;DHT22;30597;49.628;10.850;2023-04-29T09:57:54;22.50;50.50
44863;DHT22;30597;49.628;10.850;2023-04-29T10:00:20;22.60;50.20
44863;DHT22;30597;49.628;10.850;2023-04-29T10:02:47;22.60;50.20
44863;DHT22;30597;49.628;10.850;2023-04-29T10:05:14;22.50;50.10
44863;DHT22;30597;49.628;10.850;2023-04-29T10:07:40;22.50;50.30
44863;DHT22;30597;49.628;10.850;2023-04-29T10:10:06;22.50;50.10
44863;DHT22;30597;49.628;10.850;2023-04-29T10:12:36;22.50;49.90
44863;DHT22;30597;49.628;10.850;2023-04-29T10:15:38;22.50;50.00
44863;DHT22;30597;49.628;10.850;2023-04-29T10:18:21;22.60;50.10
44863;DHT22;30597;49.628;10.850;2023-04-29T10:20:50;22.60;50.10
44863;DHT22;30597;49.628;10.850;2023-04-29T10:23:16;22.60;49.90
44863;DHT22;30597;49.628;10.850;2023-04-29T10:25:45;22.60;49.80
44863;DHT22;30597;49.628;10.850;2023-04-29T10:28:14;22.60;49.60
44863;DHT22;30597;49.628;10.850;2023-04-29T10:30:44;22.60;49.30
44863;DHT22;30597;49.628;10.850;2023-04-29T10:33:10;22.60;48.60
44863;DHT22;30597;49.628;10.850;2023-04-29T10:35:36;22.60;48.40
44863;DHT22;30597;49.628;10.850;2023-04-29T10:38:22;22.70;48.20
44863;DHT22;30597;49.628;10.850;2023-04-29T10:40:49;22.60;48.40
44863;DHT22;30597;49.628;10.850;2023-04-29T10:43:22;22.50;48.40
44863;DHT22;30597;49.628;10.850;2023-04-29T10:45:48;22.40;48.70
44863;DHT22;30597;49.628;10.850;2023-04-29T10:48:14;22.40;48.80
44863;DHT22;30597;49.628;10.850;2023-04-29T10:53:12;22.50;49.30
44863;DHT22;30597;49.628;10.850;2023-04-29T10:55:44;22.50;49.10
44863;DHT22;30597;49.628;10.850;2023-04-29T10:58:33;22.60;49.10
44863;DHT22;30597;49.628;10.850;2023-04-29T11:00:59;22.50;48.70
44863;DHT22;30597;49.628;10.850;2023-04-29T11:03:44;22.50;49.00
44863;DHT22;30597;49.628;10.850;2023-04-29T11:06:10;22.60;49.00
44863;DHT22;30597;49.628;10.850;2023-04-29T11:08:36;22.50;48.80
44863;DHT22;30597;49.628;10.850;2023-04-29T11:11:04;22.50;49.00
44863;DHT22;30597;49.628;10.850;2023-04-29T11:13:31;22.50;48.90
44863;DHT22;30597;49.628;10.850;2023-04-29T11:16:05;22.50;48.80
44863;DHT22;30597;49.628;10.850;2023-04-29T11:18:32;22.50;49.00
44863;DHT22;30597;49.628;10.850;2023-04-29T11:23:39;22.50;49.00
44863;DHT22;30597;49.628;10.850;2023-04-29T11:26:06;22.50;49.10
44863;DHT22;30597;49.628;10.850;2023-04-29T11:28:32;22.40;49.20
44863;DHT22;30597;49.628;10.850;2023-04-29T11:30:58;22.40;49.30
44863;DHT22;30597;49.628;10.850;2023-04-29T11:33:25;22.40;49.30
44863;DHT22;30597;49.628;10.850;2023-04-29T11:35:52;22.40;49.30
44863;DHT22;30597;49.628;10.850;2023-04-29T11:38:23;22.30;49.40
44863;DHT22;30597;49.628;10.850;2023-04-29T11:40:49;22.30;49.40
44863;DHT22;30597;49.628;10.850;2023-04-29T11:43:19;22.30;49.40
44863;DHT22;30597;49.628;10.850;2023-04-29T11:45:45;22.20;49.60
44863;DHT22;30597;49.628;10.850;2023-04-29T11:48:24;22.20;49.80
44863;DHT22;30597;49.628;10.850;2023-04-29T11:50:53;22.20;49.80
44863;DHT22;30597;49.628;10.850;2023-04-29T11:53:20;22.10;49.80
44863;DHT22;30597;49.628;10.850;2023-04-29T11:55:46;22.10;49.80
44863;DHT22;30597;49.628;10.850;2023-04-29T11:58:14;22.10;49.90
44863;DHT22;30597;49.628;10.850;2023-04-29T12:00:40;22.10;50.00
44863;DHT22;30597;49.628;10.850;2023-04-29T12:03:16;22.00;49.80
44863;DHT22;30597;49.628;10.850;2023-04-29T12:06:01;22.10;50.00
44863;DHT22;30597;49.628;10.850;2023-04-29T12:08:28;22.10;50.00
44863;DHT22;30597;49.628;10.850;2023-04-29T12:10:55;22.10;50.00
44863;DHT22;30597;49.628;10.850;2023-04-29T12:13:27;22.10;50.00
44863;DHT22;30597;49.628;10.850;2023-04-29T12:15:53;22.10;49.90
44863;DHT22;30597;49.628;10.850;2023-04-29T12:18:19;22.10;49.80
44863;DHT22;30597;49.628;10.850;2023-04-29T12:20:47;22.10;49.70
44863;DHT22;30597;49.628;10.850;2023-04-29T12:23:17;22.20;49.80
44863;DHT22;30597;49.628;10.850;2023-04-29T12:25:49;22.20;49.80
44863;DHT22;30597;49.628;10.850;2023-04-29T12:28:15;22.20;49.70
44863;DHT22;30597;49.628;10.850;2023-04-29T12:30:43;22.20;49.80
44863;DHT22;30597;49.628;10.850;2023-04-29T12:33:09;22.20;49.70
44863;DHT22;30597;49.628;10.850;2023-04-29T12:35:35;22.10;49.60
44863;DHT22;30597;49.628;10.850;2023-04-29T12:38:01;22.10;49.60
44863;DHT22;30597;49.628;10.850;2023-04-29T12:40:27;22.10;49.60
44863;DHT22;30597;49.628;10.850;2023-04-29T12:42:53;22.20;49.60
44863;DHT22;30597;49.628;10.850;2023-04-29T12:45:29;22.30;49.40
44863;DHT22;30597;49.628;10.850;2023-04-29T12:47:59;22.40;49.10
44863;DHT22;30597;49.628;10.850;2023-04-29T12:50:33;22.40;49.20
44863;DHT22;30597;49.628;10.850;2023-04-29T12:52:59;22.50;49.20
44863;DHT22;30597;49.628;10.850;2023-04-29T12:55:24;22.50;48.90
44863;DHT22;30597;49.628;10.850;2023-04-29T12:57:50;22.50;49.10
44863;DHT22;30597;49.628;10.850;2023-04-29T13:00:16;22.50;48.90
44863;DHT22;30597;49.628;10.850;2023-04-29T13:02:44;22.50;48.70
44863;DHT22;30597;49.628;10.850;2023-04-29T13:05:10;22.50;48.80
44863;DHT22;30597;49.628;10.850;2023-04-29T13:07:37;22.50;48.70
44863;DHT22;30597;49.628;10.850;2023-04-29T13:10:03;22.50;48.80
44863;DHT22;30597;49.628;10.850;2023-04-29T13:12:31;22.50;48.90
44863;DHT22;30597;49.628;10.850;2023-04-29T13:14:56;22.50;48.70
44863;DHT22;30597;49.628;10.850;2023-04-29T13:17:22;22.50;48.80
44863;DHT22;30597;49.628;10.850;2023-04-29T13:19:48;22.50;48.90
44863;DHT22;30597;49.628;10.850;2023-04-29T13:22:13;22.50;48.90
44863;DHT22;30597;49.628;10.850;2023-04-29T13:24:39;22.50;49.00
44863;DHT22;30597;49.628;10.850;2023-04-29T13:27:04;22.40;48.90
44863;DHT22;30597;49.628;10.850;2023-04-29T13:29:30;22.50;49.00
44863;DHT22;30597;49.628;10.850;2023-04-29T13:31:56;22.40;49.00
44863;DHT22;30597;49.628;10.850;2023-04-29T13:34:21;22.40;49.10
44863;DHT22;30597;49.628;10.850;2023-04-29T13:36:47;22.30;49.10
44863;DHT22;30597;49.628;10.850;2023-04-29T13:39:12;22.30;49.20
44863;DHT22;30597;49.628;10.850;2023-04-29T13:41:38;22.30;49.20
44863;DHT22;30597;49.628;10.850;2023-04-29T13:44:03;22.20;49.30
44863;DHT22;30597;49.628;10.850;2023-04-29T13:46:29;22.20;49.40
44863;DHT22;30597;49.628;10.850;2023-04-29T13:48:57;22.20;49.50
44863;DHT22;30597;49.628;10.850;2023-04-29T13:51:22;22.10;49.50
44863;DHT22;30597;49.628;10.850;2023-04-29T13:53:48;22.10;49.60
44863;DHT22;30597;49.628;10.850;2023-04-29T13:56:13;22.00;49.60
44863;DHT22;30597;49.628;10.850;2023-04-29T13:58:39;22.00;49.70
44863;DHT22;30597;49.628;10.850;2023-04-29T14:01:06;22.00;49.80
44863;DHT22;30597;49.628;10.850;2023-04-29T14:03:31;22.00;49.80
44863;DHT22;30597;49.628;10.850;2023-04-29T14:05:57;21.90;49.80
44863;DHT22;30597;49.628;10.850;2023-04-29T14:08:23;22.00;49.90
44863;DHT22;30597;49.628;10.850;2023-04-29T14:10:48;22.00;49.90
44863;DHT22;30597;49.628;10.850;2023-04-29T14:13:14;22.00;49.90
44863;DHT22;30597;49.628;10.850;2023-04-29T14:15:40;21.90;49.80
44863;DHT22;30597;49.628;10.850;2023-04-29T14:18:05;21.90;49.80
44863;DHT22;30597;49.628;10.850;2023-04-29T14:20:33;21.90;49.90
44863;DHT22;30597;49.628;10.850;2023-04-29T14:22:59;21.90;49.90
44863;DHT22;30597;49.628;10.850;2023-04-29T14:25:25;21.90;49.80
44863;DHT22;30597;49.628;10.850;2023-04-29T14:27:50;21.90;49.80
44863;DHT22;30597;49.628;10.850;2023-04-29T14:30:16;21.90;49.70
44863;DHT22;30597;49.628;10.850;2023-04-29T14:32:41;21.90;49.70
44863;DHT22;30597;49.628;10.850;2023-04-29T14:35:07;22.00;49.60
44863;DHT22;30597;49.628;10.850;2023-04-29T14:37:33;22.10;49.40
44863;DHT22;30597;49.628;10.850;2023-04-29T14:39:58;22.20;49.40
44863;DHT22;30597;49.628;10.850;2023-04-29T14:42:24;22.20;49.30
44863;DHT22;30597;49.628;10.850;2023-04-29T14:44:49;22.30;49.30
44863;DHT22;30597;49.628;10.850;2023-04-29T14:47:15;22.30;49.20
44863;DHT22;30597;49.628;10.850;2023-04-29T14:49:41;22.30;49.10
44863;DHT22;30597;49.628;10.850;2023-04-29T14:52:07;22.40;49.20
44863;DHT22;30597;49.628;10.850;2023-04-29T14:54:32;22.40;49.20
44863;DHT22;30597;49.628;10.850;2023-04-29T14:56:58;22.40;49.10
44863;DHT22;30597;49.628;10.850;2023-04-29T14:59:23;22.40;49.10
44863;DHT22;30597;49.628;10.850;2023-04-29T15:01:49;22.40;49.10
44863;DHT22;30597;49.628;10.850;2023-04-29T15:04:14;22.40;49.10
44863;DHT22;30597;49.628;10.850;2023-04-29T15:06:40;22.40;49.10
44863;DHT22;30597;49.628;10.850;2023-04-29T15:09:06;22.40;49.10
44863;DHT22;30597;49.628;10.850;2023-04-29T15:11:32;22.40;49.80
44863;DHT22;30597;49.628;10.850;2023-04-29T15:13:57;22.30;49.10
44863;DHT22;30597;49.628;10.850;2023-04-29T15:16:23;22.30;49.10
44863;DHT22;30597;49.628;10.850;2023-04-29T15:18:49;22.30;49.20
44863;DHT22;30597;49.628;10.850;2023-04-29T15:21:14;22.30;49.20
44863;DHT22;30597;49.628;10.850;2023-04-29T15:23:40;22.30;49.30
44863;DHT22;30597;49.628;10.850;2023-04-29T15:26:05;22.20;49.30
44863;DHT22;30597;49.628;10.850;2023-04-29T15:28:32;22.20;49.30
44863;DHT22;30597;49.628;10.850;2023-04-29T15:30:57;22.20;49.30
44863;DHT22;30597;49.628;10.850;2023-04-29T15:33:25;22.20;49.40